sensor_id;sensor_type;location;lat;lon;timestamp;temperature;humidity
25825;DHT22;13658;44.534;18.694;2023-07-24T00:00:24;20.30;99.90
25825;DHT22;13658;44.534;18.694;2023-07-24T00:02:50;20.30;99.90
25825;DHT22;13658;44.534;18.694;2023-07-24T00:05:16;20.20;99.90
25825;DHT22;13658;44.534;18.694;2023-07-24T00:07:42;20.20;99.90
25825;DHT22;13658;44.534;18.694;2023-07-24T00:10:08;20.30;99.90
25825;DHT22;13658;44.534;18.694;2023-07-24T00:12:34;20.30;99.90
25825;DHT22;13658;44.534;18.694;2023-07-24T00:15:00;20.20;99.90
25825;DHT22;13658;44.534;18.694;2023-07-24T00:17:26;20.10;99.90
25825;DHT22;13658;44.534;18.694;2023-07-24T00:19:52;20.10;99.90
25825;DHT22;13658;44.534;18.694;2023-07-24T00:22:18;20.10;99.90
25825;DHT22;13658;44.534;18.694;2023-07-24T00:24:44;20.10;99.90
25825;DHT22;13658;44.534;18.694;2023-07-24T00:27:09;20.10;99.90
25825;DHT22;13658;44.534;18.694;2023-07-24T00:29:35;20.10;99.90
25825;DHT22;13658;44.534;18.694;2023-07-24T00:32:01;20.00;99.90
25825;DHT22;13658;44.534;18.694;2023-07-24T00:34:27;19.90;99.90
25825;DHT22;13658;44.534;18.694;2023-07-24T00:36:53;19.90;99.90
25825;DHT22;13658;44.534;18.694;2023-07-24T00:39:19;19.80;99.90
25825;DHT22;13658;44.534;18.694;2023-07-24T00:41:45;19.80;99.90
25825;DHT22;13658;44.534;18.694;2023-07-24T00:44:11;19.90;99.90
25825;DHT22;13658;44.534;18.694;2023-07-24T00:46:37;19.80;99.90
25825;DHT22;13658;44.534;18.694;2023-07-24T00:49:04;19.80;99.90
25825;DHT22;13658;44.534;18.694;2023-07-24T00:51:33;19.80;99.90
25825;DHT22;13658;44.534;18.694;2023-07-24T00:54:02;19.80;99.90
25825;DHT22;13658;44.534;18.694;2023-07-24T00:56:29;19.80;99.90
25825;DHT22;13658;44.534;18.694;2023-07-24T00:58:56;19.80;99.90
25825;DHT22;13658;44.534;18.694;2023-07-24T01:01:22;19.80;99.90
25825;DHT22;13658;44.534;18.694;2023-07-24T01:03:49;19.70;99.90
25825;DHT22;13658;44.534;18.694;2023-07-24T01:06:16;19.70;99.90
25825;DHT22;13658;44.534;18.694;2023-07-24T01:08:42;19.60;99.90
25825;DHT22;13658;44.534;18.694;2023-07-24T01:11:28;19.70;99.90
25825;DHT22;13658;44.534;18.694;2023-07-24T01:14:02;19.60;99.90
25825;DHT22;13658;44.534;18.694;2023-07-24T01:16:36;19.60;99.90
25825;DHT22;13658;44.534;18.694;2023-07-24T01:19:12;19.60;99.90
25825;DHT22;13658;44.534;18.694;2023-07-24T01:21:58;19.60;99.90
25825;DHT22;13658;44.534;18.694;2023-07-24T01:24:36;19.60;99.90
25825;DHT22;13658;44.534;18.694;2023-07-24T01:27:03;19.60;99.90
25825;DHT22;13658;44.534;18.694;2023-07-24T01:29:29;19.60;99.90
25825;DHT22;13658;44.534;18.694;2023-07-24T01:31:55;19.50;99.90
25825;DHT22;13658;44.534;18.694;2023-07-24T01:34:21;19.50;99.90
25825;DHT22;13658;44.534;18.694;2023-07-24T01:36:48;19.50;99.90
25825;DHT22;13658;44.534;18.694;2023-07-24T01:39:15;19.40;99.90
25825;DHT22;13658;44.534;18.694;2023-07-24T01:41:43;19.40;99.90
25825;DHT22;13658;44.534;18.694;2023-07-24T01:44:08;19.40;99.90
25825;DHT22;13658;44.534;18.694;2023-07-24T01:46:34;19.30;99.90
25825;DHT22;13658;44.534;18.694;2023-07-24T01:49:00;19.20;99.90
25825;DHT22;13658;44.534;18.694;2023-07-24T01:51:26;19.20;99.90
25825;DHT22;13658;44.534;18.694;2023-07-24T01:53:52;19.30;99.90
25825;DHT22;13658;44.534;18.694;2023-07-24T01:56:18;19.30;99.90
25825;DHT22;13658;44.534;18.694;2023-07-24T01:58:44;19.20;99.90
25825;DHT22;13658;44.534;18.694;2023-07-24T02:01:10;19.20;99.90
25825;DHT22;13658;44.534;18.694;2023-07-24T02:03:36;19.20;99.90
25825;DHT22;13658;44.534;18.694;2023-07-24T02:06:05;19.20;99.90
25825;DHT22;13658;44.534;18.694;2023-07-24T02:08:31;19.20;99.90
25825;DHT22;13658;44.534;18.694;2023-07-24T02:10:56;19.20;99.90
25825;DHT22;13658;44.534;18.694;2023-07-24T02:13:24;19.10;99.90
25825;DHT22;13658;44.534;18.694;2023-07-24T02:15:50;19.00;99.90
25825;DHT22;13658;44.534;18.694;2023-07-24T02:18:17;19.10;99.90
25825;DHT22;13658;44.534;18.694;2023-07-24T02:20:49;18.90;99.90
25825;DHT22;13658;44.534;18.694;2023-07-24T02:23:16;18.80;99.90
25825;DHT22;13658;44.534;18.694;2023-07-24T02:25:42;18.70;99.90
25825;DHT22;13658;44.534;18.694;2023-07-24T02:28:08;18.70;99.90
25825;DHT22;13658;44.534;18.694;2023-07-24T02:30:38;18.70;99.90
25825;DHT22;13658;44.534;18.694;2023-07-24T02:33:05;18.70;99.90
25825;DHT22;13658;44.534;18.694;2023-07-24T02:35:31;18.70;99.90
25825;DHT22;13658;44.534;18.694;2023-07-24T02:37:57;18.70;99.90
25825;DHT22;13658;44.534;18.694;2023-07-24T02:40:23;18.70;99.90
25825;DHT22;13658;44.534;18.694;2023-07-24T02:42:48;18.70;99.90
25825;DHT22;13658;44.534;18.694;2023-07-24T02:45:14;18.70;99.90
25825;DHT22;13658;44.534;18.694;2023-07-24T02:47:40;18.80;99.90
25825;DHT22;13658;44.534;18.694;2023-07-24T02:50:08;18.70;99.90
25825;DHT22;13658;44.534;18.694;2023-07-24T02:52:34;18.70;99.90
25825;DHT22;13658;44.534;18.694;2023-07-24T02:55:00;18.70;99.90
25825;DHT22;13658;44.534;18.694;2023-07-24T02:57:26;18.70;99.90
25825;DHT22;13658;44.534;18.694;2023-07-24T02:59:52;18.60;99.90
25825;DHT22;13658;44.534;18.694;2023-07-24T03:02:18;18.50;99.90
25825;DHT22;13658;44.534;18.694;2023-07-24T03:04:43;18.50;99.90
25825;DHT22;13658;44.534;18.694;2023-07-24T03:07:11;18.40;99.90
25825;DHT22;13658;44.534;18.694;2023-07-24T03:09:37;18.40;99.90
25825;DHT22;13658;44.534;18.694;2023-07-24T03:12:03;18.40;99.90
25825;DHT22;13658;44.534;18.694;2023-07-24T03:14:29;18.50;99.90
25825;DHT22;13658;44.534;18.694;2023-07-24T03:16:55;18.50;99.90
25825;DHT22;13658;44.534;18.694;2023-07-24T03:19:21;18.60;99.90
25825;DHT22;13658;44.534;18.694;2023-07-24T03:21:47;18.50;99.90
25825;DHT22;13658;44.534;18.694;2023-07-24T03:24:13;18.50;99.90
25825;DHT22;13658;44.534;18.694;2023-07-24T03:26:39;18.50;99.90
25825;DHT22;13658;44.534;18.694;2023-07-24T03:29:05;18.50;99.90
25825;DHT22;13658;44.534;18.694;2023-07-24T03:31:31;18.50;99.90
25825;DHT22;13658;44.534;18.694;2023-07-24T03:33:57;18.50;99.90
25825;DHT22;13658;44.534;18.694;2023-07-24T03:36:23;18.50;99.90
25825;DHT22;13658;44.534;18.694;2023-07-24T03:38:49;18.50;99.90
25825;DHT22;13658;44.534;18.694;2023-07-24T03:41:15;18.50;99.90
25825;DHT22;13658;44.534;18.694;2023-07-24T03:43:41;18.60;99.90
25825;DHT22;13658;44.534;18.694;2023-07-24T03:46:07;18.60;99.90
25825;DHT22;13658;44.534;18.694;2023-07-24T03:48:33;18.60;99.90
25825;DHT22;13658;44.534;18.694;2023-07-24T03:51:01;18.60;99.90
25825;DHT22;13658;44.534;18.694;2023-07-24T03:53:27;18.50;99.90
25825;DHT22;13658;44.534;18.694;2023-07-24T03:55:53;18.50;99.90
25825;DHT22;13658;44.534;18.694;2023-07-24T03:58:19;18.40;99.90
25825;DHT22;13658;44.534;18.694;2023-07-24T04:00:46;18.40;99.90
25825;DHT22;13658;44.534;18.694;2023-07-24T04:03:12;18.40;99.90
25825;DHT22;13658;44.534;18.694;2023-07-24T04:05:38;18.30;99.90
25825;DHT22;13658;44.534;18.694;2023-07-24T04:08:04;18.40;99.90
25825;DHT22;13658;44.534;18.694;2023-07-24T04:10:30;18.30;99.90
25825;DHT22;13658;44.534;18.694;2023-07-24T04:12:57;18.30;99.90
25825;DHT22;13658;44.534;18.694;2023-07-24T04:15:23;18.30;99.90
25825;DHT22;13658;44.534;18.694;2023-07-24T04:17:49;18.30;99.90
25825;DHT22;13658;44.534;18.694;2023-07-24T04:20:15;18.40;99.90
25825;DHT22;13658;44.534;18.694;2023-07-24T04:22:41;18.50;99.90
25825;DHT22;13658;44.534;18.694;2023-07-24T04:25:07;18.50;99.90
25825;DHT22;13658;44.534;18.694;2023-07-24T04:27:33;18.70;99.90
25825;DHT22;13658;44.534;18.694;2023-07-24T04:29:59;18.80;99.90
25825;DHT22;13658;44.534;18.694;2023-07-24T04:32:26;18.90;99.90
25825;DHT22;13658;44.534;18.694;2023-07-24T04:34:53;19.00;99.90
25825;DHT22;13658;44.534;18.694;2023-07-24T04:37:19;19.20;99.90
25825;DHT22;13658;44.534;18.694;2023-07-24T04:39:45;19.30;99.90
25825;DHT22;13658;44.534;18.694;2023-07-24T04:42:11;19.50;99.90
25825;DHT22;13658;44.534;18.694;2023-07-24T04:44:37;19.70;99.90
25825;DHT22;13658;44.534;18.694;2023-07-24T04:47:03;19.90;99.90
25825;DHT22;13658;44.534;18.694;2023-07-24T04:49:29;20.00;99.90
25825;DHT22;13658;44.534;18.694;2023-07-24T04:51:56;20.30;99.90
25825;DHT22;13658;44.534;18.694;2023-07-24T04:54:22;20.60;99.90
25825;DHT22;13658;44.534;18.694;2023-07-24T04:56:48;20.80;99.90
25825;DHT22;13658;44.534;18.694;2023-07-24T04:59:14;20.90;99.90
25825;DHT22;13658;44.534;18.694;2023-07-24T05:01:40;21.10;99.90
25825;DHT22;13658;44.534;18.694;2023-07-24T05:04:06;21.30;99.90
25825;DHT22;13658;44.534;18.694;2023-07-24T05:06:32;21.40;99.90
25825;DHT22;13658;44.534;18.694;2023-07-24T05:08:58;21.70;99.90
25825;DHT22;13658;44.534;18.694;2023-07-24T05:11:24;21.80;99.90
25825;DHT22;13658;44.534;18.694;2023-07-24T05:13:49;22.10;99.90
25825;DHT22;13658;44.534;18.694;2023-07-24T05:16:15;22.20;99.90
25825;DHT22;13658;44.534;18.694;2023-07-24T05:18:41;22.40;99.90
25825;DHT22;13658;44.534;18.694;2023-07-24T05:21:07;22.50;99.90
25825;DHT22;13658;44.534;18.694;2023-07-24T05:23:33;22.70;99.90
25825;DHT22;13658;44.534;18.694;2023-07-24T05:26:00;23.00;99.90
25825;DHT22;13658;44.534;18.694;2023-07-24T05:28:27;23.10;99.90
25825;DHT22;13658;44.534;18.694;2023-07-24T05:30:53;23.30;99.90
25825;DHT22;13658;44.534;18.694;2023-07-24T05:33:19;23.60;99.90
25825;DHT22;13658;44.534;18.694;2023-07-24T05:35:45;23.80;99.90
25825;DHT22;13658;44.534;18.694;2023-07-24T05:38:11;24.10;99.90
25825;DHT22;13658;44.534;18.694;2023-07-24T05:40:37;24.30;99.90
25825;DHT22;13658;44.534;18.694;2023-07-24T05:43:03;24.60;99.90
25825;DHT22;13658;44.534;18.694;2023-07-24T05:45:29;24.50;99.90
25825;DHT22;13658;44.534;18.694;2023-07-24T05:47:55;24.90;99.90
25825;DHT22;13658;44.534;18.694;2023-07-24T05:50:21;25.10;99.90
25825;DHT22;13658;44.534;18.694;2023-07-24T05:52:47;25.30;99.90
25825;DHT22;13658;44.534;18.694;2023-07-24T05:55:13;25.50;99.90
25825;DHT22;13658;44.534;18.694;2023-07-24T05:57:39;25.70;99.90
25825;DHT22;13658;44.534;18.694;2023-07-24T06:00:05;25.80;99.90
25825;DHT22;13658;44.534;18.694;2023-07-24T06:02:37;26.00;99.90
25825;DHT22;13658;44.534;18.694;2023-07-24T06:05:03;26.30;99.90
25825;DHT22;13658;44.534;18.694;2023-07-24T06:07:29;26.30;99.90
25825;DHT22;13658;44.534;18.694;2023-07-24T06:09:54;26.30;99.90
25825;DHT22;13658;44.534;18.694;2023-07-24T06:12:20;26.60;99.90
25825;DHT22;13658;44.534;18.694;2023-07-24T06:14:46;26.80;99.90
25825;DHT22;13658;44.534;18.694;2023-07-24T06:17:12;26.90;99.90
25825;DHT22;13658;44.534;18.694;2023-07-24T06:19:38;27.20;99.90
25825;DHT22;13658;44.534;18.694;2023-07-24T06:22:04;27.60;99.90
25825;DHT22;13658;44.534;18.694;2023-07-24T06:24:30;28.00;99.90
25825;DHT22;13658;44.534;18.694;2023-07-24T06:26:56;28.30;99.90
25825;DHT22;13658;44.534;18.694;2023-07-24T06:29:22;28.50;99.90
25825;DHT22;13658;44.534;18.694;2023-07-24T06:31:48;28.80;99.90
25825;DHT22;13658;44.534;18.694;2023-07-24T06:34:15;29.00;99.90
25825;DHT22;13658;44.534;18.694;2023-07-24T06:36:41;29.10;99.90
25825;DHT22;13658;44.534;18.694;2023-07-24T06:39:07;29.30;99.90
25825;DHT22;13658;44.534;18.694;2023-07-24T06:41:33;29.50;99.90
25825;DHT22;13658;44.534;18.694;2023-07-24T06:43:59;29.70;99.90
25825;DHT22;13658;44.534;18.694;2023-07-24T06:46:24;30.00;99.90
25825;DHT22;13658;44.534;18.694;2023-07-24T06:48:50;30.40;99.90
25825;DHT22;13658;44.534;18.694;2023-07-24T06:51:16;30.50;99.90
25825;DHT22;13658;44.534;18.694;2023-07-24T06:53:42;30.90;99.90
25825;DHT22;13658;44.534;18.694;2023-07-24T06:56:08;31.20;99.90
25825;DHT22;13658;44.534;18.694;2023-07-24T06:58:34;31.30;99.90
25825;DHT22;13658;44.534;18.694;2023-07-24T07:01:00;31.70;99.90
25825;DHT22;13658;44.534;18.694;2023-07-24T07:03:26;32.10;99.90
25825;DHT22;13658;44.534;18.694;2023-07-24T07:05:58;32.20;99.90
25825;DHT22;13658;44.534;18.694;2023-07-24T07:08:24;32.40;99.90
25825;DHT22;13658;44.534;18.694;2023-07-24T07:10:57;32.60;99.90
25825;DHT22;13658;44.534;18.694;2023-07-24T07:13:23;32.70;99.90
25825;DHT22;13658;44.534;18.694;2023-07-24T07:15:49;33.10;99.90
25825;DHT22;13658;44.534;18.694;2023-07-24T07:18:15;33.30;99.90
25825;DHT22;13658;44.534;18.694;2023-07-24T07:20:48;33.60;99.90
25825;DHT22;13658;44.534;18.694;2023-07-24T07:23:15;33.80;99.90
25825;DHT22;13658;44.534;18.694;2023-07-24T07:25:41;34.00;99.90
25825;DHT22;13658;44.534;18.694;2023-07-24T07:28:16;34.10;99.90
25825;DHT22;13658;44.534;18.694;2023-07-24T07:30:43;34.20;99.90
25825;DHT22;13658;44.534;18.694;2023-07-24T07:33:09;34.50;99.90
25825;DHT22;13658;44.534;18.694;2023-07-24T07:35:36;34.40;99.90
25825;DHT22;13658;44.534;18.694;2023-07-24T07:38:02;34.40;99.90
25825;DHT22;13658;44.534;18.694;2023-07-24T07:40:29;34.30;99.90
25825;DHT22;13658;44.534;18.694;2023-07-24T07:42:55;34.50;99.90
25825;DHT22;13658;44.534;18.694;2023-07-24T07:45:22;34.70;99.90
25825;DHT22;13658;44.534;18.694;2023-07-24T07:47:48;35.30;99.90
25825;DHT22;13658;44.534;18.694;2023-07-24T07:50:15;36.10;99.90
25825;DHT22;13658;44.534;18.694;2023-07-24T07:52:41;36.00;99.90
25825;DHT22;13658;44.534;18.694;2023-07-24T07:55:07;36.40;99.90
25825;DHT22;13658;44.534;18.694;2023-07-24T07:57:37;36.60;99.90
25825;DHT22;13658;44.534;18.694;2023-07-24T08:00:04;37.00;99.90
25825;DHT22;13658;44.534;18.694;2023-07-24T08:02:32;36.90;99.90
25825;DHT22;13658;44.534;18.694;2023-07-24T08:04:59;36.70;99.90
25825;DHT22;13658;44.534;18.694;2023-07-24T08:07:25;36.70;99.90
25825;DHT22;13658;44.534;18.694;2023-07-24T08:09:51;36.70;99.90
25825;DHT22;13658;44.534;18.694;2023-07-24T08:12:17;37.00;99.90
25825;DHT22;13658;44.534;18.694;2023-07-24T08:14:43;37.40;99.90
25825;DHT22;13658;44.534;18.694;2023-07-24T08:17:08;37.40;99.90
25825;DHT22;13658;44.534;18.694;2023-07-24T08:19:34;37.30;99.90
25825;DHT22;13658;44.534;18.694;2023-07-24T08:22:00;37.80;99.90
25825;DHT22;13658;44.534;18.694;2023-07-24T08:24:26;38.10;99.90
25825;DHT22;13658;44.534;18.694;2023-07-24T08:26:52;38.80;99.90
25825;DHT22;13658;44.534;18.694;2023-07-24T08:29:18;38.50;99.90
25825;DHT22;13658;44.534;18.694;2023-07-24T08:31:44;38.70;99.90
25825;DHT22;13658;44.534;18.694;2023-07-24T08:34:10;38.50;99.90
25825;DHT22;13658;44.534;18.694;2023-07-24T08:36:36;39.10;99.90
25825;DHT22;13658;44.534;18.694;2023-07-24T08:39:03;38.70;99.90
25825;DHT22;13658;44.534;18.694;2023-07-24T08:41:29;38.70;99.90
25825;DHT22;13658;44.534;18.694;2023-07-24T08:43:56;39.40;99.90
25825;DHT22;13658;44.534;18.694;2023-07-24T08:46:22;39.10;99.90
25825;DHT22;13658;44.534;18.694;2023-07-24T08:48:49;39.80;99.90
25825;DHT22;13658;44.534;18.694;2023-07-24T08:51:15;39.40;99.90
25825;DHT22;13658;44.534;18.694;2023-07-24T08:53:50;39.30;99.90
25825;DHT22;13658;44.534;18.694;2023-07-24T08:56:16;39.00;99.90
25825;DHT22;13658;44.534;18.694;2023-07-24T08:58:42;38.80;99.90
25825;DHT22;13658;44.534;18.694;2023-07-24T09:01:09;38.90;99.90
25825;DHT22;13658;44.534;18.694;2023-07-24T09:03:35;39.00;99.90
25825;DHT22;13658;44.534;18.694;2023-07-24T09:06:02;39.60;99.90
25825;DHT22;13658;44.534;18.694;2023-07-24T09:08:30;40.20;99.90
25825;DHT22;13658;44.534;18.694;2023-07-24T09:10:57;40.00;99.90
25825;DHT22;13658;44.534;18.694;2023-07-24T09:13:23;40.10;99.90
25825;DHT22;13658;44.534;18.694;2023-07-24T09:15:49;40.50;99.90
25825;DHT22;13658;44.534;18.694;2023-07-24T09:18:15;40.50;99.90
25825;DHT22;13658;44.534;18.694;2023-07-24T09:20:44;40.50;99.90
25825;DHT22;13658;44.534;18.694;2023-07-24T09:23:12;41.20;99.90
25825;DHT22;13658;44.534;18.694;2023-07-24T09:25:39;41.60;99.90
25825;DHT22;13658;44.534;18.694;2023-07-24T09:28:16;40.80;99.90
25825;DHT22;13658;44.534;18.694;2023-07-24T09:30:54;40.80;99.90
25825;DHT22;13658;44.534;18.694;2023-07-24T09:36:01;40.60;99.90
25825;DHT22;13658;44.534;18.694;2023-07-24T09:38:27;40.80;99.90
25825;DHT22;13658;44.534;18.694;2023-07-24T09:40:53;41.10;99.90
25825;DHT22;13658;44.534;18.694;2023-07-24T09:43:26;41.50;99.90
25825;DHT22;13658;44.534;18.694;2023-07-24T09:45:53;42.20;99.90
25825;DHT22;13658;44.534;18.694;2023-07-24T09:48:21;42.20;99.90
25825;DHT22;13658;44.534;18.694;2023-07-24T09:50:49;41.00;99.90
25825;DHT22;13658;44.534;18.694;2023-07-24T09:55:57;41.00;99.90
25825;DHT22;13658;44.534;18.694;2023-07-24T09:58:24;41.20;99.90
25825;DHT22;13658;44.534;18.694;2023-07-24T10:00:52;41.40;99.90
25825;DHT22;13658;44.534;18.694;2023-07-24T10:03:18;41.30;99.90
25825;DHT22;13658;44.534;18.694;2023-07-24T10:05:47;42.10;99.90
25825;DHT22;13658;44.534;18.694;2023-07-24T10:08:15;42.30;99.90
25825;DHT22;13658;44.534;18.694;2023-07-24T10:10:42;41.90;99.90
25825;DHT22;13658;44.534;18.694;2023-07-24T10:13:09;42.20;99.90
25825;DHT22;13658;44.534;18.694;2023-07-24T10:15:37;41.50;99.90
25825;DHT22;13658;44.534;18.694;2023-07-24T10:18:06;41.80;99.90
25825;DHT22;13658;44.534;18.694;2023-07-24T10:20:36;42.20;99.90
25825;DHT22;13658;44.534;18.694;2023-07-24T10:23:03;42.40;99.90
25825;DHT22;13658;44.534;18.694;2023-07-24T10:25:33;41.80;99.90
25825;DHT22;13658;44.534;18.694;2023-07-24T10:28:07;42.20;99.90
25825;DHT22;13658;44.534;18.694;2023-07-24T10:30:36;42.70;99.90
25825;DHT22;13658;44.534;18.694;2023-07-24T10:33:10;42.30;99.90
25825;DHT22;13658;44.534;18.694;2023-07-24T10:35:43;42.70;99.90
25825;DHT22;13658;44.534;18.694;2023-07-24T10:38:11;42.80;99.90
25825;DHT22;13658;44.534;18.694;2023-07-24T10:40:37;42.80;99.90
25825;DHT22;13658;44.534;18.694;2023-07-24T10:43:08;43.30;99.90
25825;DHT22;13658;44.534;18.694;2023-07-24T10:45:51;43.40;99.90
25825;DHT22;13658;44.534;18.694;2023-07-24T10:48:19;42.90;99.90
25825;DHT22;13658;44.534;18.694;2023-07-24T10:50:47;43.30;99.90
25825;DHT22;13658;44.534;18.694;2023-07-24T10:53:18;43.00;99.90
25825;DHT22;13658;44.534;18.694;2023-07-24T10:55:45;43.00;99.90
25825;DHT22;13658;44.534;18.694;2023-07-24T10:58:13;41.90;99.90
25825;DHT22;13658;44.534;18.694;2023-07-24T11:00:40;40.60;99.90
25825;DHT22;13658;44.534;18.694;2023-07-24T11:03:13;39.80;99.90
25825;DHT22;13658;44.534;18.694;2023-07-24T11:05:44;39.20;99.90
25825;DHT22;13658;44.534;18.694;2023-07-24T11:08:13;38.80;99.90
25825;DHT22;13658;44.534;18.694;2023-07-24T11:10:50;38.00;99.90
25825;DHT22;13658;44.534;18.694;2023-07-24T11:13:17;37.50;99.90
25825;DHT22;13658;44.534;18.694;2023-07-24T11:15:44;37.00;99.90
25825;DHT22;13658;44.534;18.694;2023-07-24T11:18:10;36.70;99.90
25825;DHT22;13658;44.534;18.694;2023-07-24T11:20:38;36.40;99.90
25825;DHT22;13658;44.534;18.694;2023-07-24T11:23:05;36.20;99.90
25825;DHT22;13658;44.534;18.694;2023-07-24T11:25:31;36.30;99.90
25825;DHT22;13658;44.534;18.694;2023-07-24T11:27:58;36.50;99.90
25825;DHT22;13658;44.534;18.694;2023-07-24T11:30:24;36.30;99.90
25825;DHT22;13658;44.534;18.694;2023-07-24T11:32:50;36.30;99.90
25825;DHT22;13658;44.534;18.694;2023-07-24T11:35:16;36.30;99.90
25825;DHT22;13658;44.534;18.694;2023-07-24T11:37:43;36.30;99.90
25825;DHT22;13658;44.534;18.694;2023-07-24T11:40:09;36.30;99.90
25825;DHT22;13658;44.534;18.694;2023-07-24T11:42:39;36.10;99.90
25825;DHT22;13658;44.534;18.694;2023-07-24T11:45:07;36.00;99.90
25825;DHT22;13658;44.534;18.694;2023-07-24T11:48:01;35.90;99.90
25825;DHT22;13658;44.534;18.694;2023-07-24T11:50:28;36.20;99.90
25825;DHT22;13658;44.534;18.694;2023-07-24T11:52:54;36.40;99.90
25825;DHT22;13658;44.534;18.694;2023-07-24T11:55:30;36.60;99.90
25825;DHT22;13658;44.534;18.694;2023-07-24T11:58:01;36.60;99.90
25825;DHT22;13658;44.534;18.694;2023-07-24T12:00:32;36.40;99.90
25825;DHT22;13658;44.534;18.694;2023-07-24T12:03:00;36.40;99.90
25825;DHT22;13658;44.534;18.694;2023-07-24T12:05:26;36.20;99.90
25825;DHT22;13658;44.534;18.694;2023-07-24T12:07:54;36.10;99.90
25825;DHT22;13658;44.534;18.694;2023-07-24T12:10:27;36.20;99.90
25825;DHT22;13658;44.534;18.694;2023-07-24T12:12:54;36.10;99.90
25825;DHT22;13658;44.534;18.694;2023-07-24T12:15:21;35.90;99.90
25825;DHT22;13658;44.534;18.694;2023-07-24T12:17:47;35.70;99.90
25825;DHT22;13658;44.534;18.694;2023-07-24T12:20:13;35.60;99.90
25825;DHT22;13658;44.534;18.694;2023-07-24T12:22:39;35.50;99.90
25825;DHT22;13658;44.534;18.694;2023-07-24T12:25:06;35.40;99.90
25825;DHT22;13658;44.534;18.694;2023-07-24T12:27:32;35.40;99.90
25825;DHT22;13658;44.534;18.694;2023-07-24T12:29:59;35.60;99.90
25825;DHT22;13658;44.534;18.694;2023-07-24T12:32:25;35.70;99.90
25825;DHT22;13658;44.534;18.694;2023-07-24T12:34:52;35.70;99.90
25825;DHT22;13658;44.534;18.694;2023-07-24T12:37:19;35.80;99.90
25825;DHT22;13658;44.534;18.694;2023-07-24T12:39:46;35.80;99.90
25825;DHT22;13658;44.534;18.694;2023-07-24T12:42:12;35.70;99.90
25825;DHT22;13658;44.534;18.694;2023-07-24T12:44:38;35.70;99.90
25825;DHT22;13658;44.534;18.694;2023-07-24T12:47:05;35.60;99.90
25825;DHT22;13658;44.534;18.694;2023-07-24T12:49:31;35.60;99.90
25825;DHT22;13658;44.534;18.694;2023-07-24T12:51:57;35.50;99.90
25825;DHT22;13658;44.534;18.694;2023-07-24T12:54:23;35.50;99.90
25825;DHT22;13658;44.534;18.694;2023-07-24T12:56:50;35.60;99.90
25825;DHT22;13658;44.534;18.694;2023-07-24T12:59:17;35.50;99.90
25825;DHT22;13658;44.534;18.694;2023-07-24T13:01:44;35.70;99.90
25825;DHT22;13658;44.534;18.694;2023-07-24T13:04:10;35.60;99.90
25825;DHT22;13658;44.534;18.694;2023-07-24T13:06:36;35.40;99.90
25825;DHT22;13658;44.534;18.694;2023-07-24T13:09:03;35.20;99.90
25825;DHT22;13658;44.534;18.694;2023-07-24T13:11:30;35.10;99.90
25825;DHT22;13658;44.534;18.694;2023-07-24T13:13:56;35.10;99.90
25825;DHT22;13658;44.534;18.694;2023-07-24T13:16:23;35.10;99.90
25825;DHT22;13658;44.534;18.694;2023-07-24T13:18:51;35.00;99.90
25825;DHT22;13658;44.534;18.694;2023-07-24T13:21:17;35.00;99.90
25825;DHT22;13658;44.534;18.694;2023-07-24T13:23:43;34.80;99.90
25825;DHT22;13658;44.534;18.694;2023-07-24T13:26:09;34.80;99.90
25825;DHT22;13658;44.534;18.694;2023-07-24T13:28:36;34.60;99.90
25825;DHT22;13658;44.534;18.694;2023-07-24T13:31:15;34.60;99.90
25825;DHT22;13658;44.534;18.694;2023-07-24T13:33:41;34.50;99.90
25825;DHT22;13658;44.534;18.694;2023-07-24T13:36:07;34.40;99.90
25825;DHT22;13658;44.534;18.694;2023-07-24T13:38:34;34.40;99.90
25825;DHT22;13658;44.534;18.694;2023-07-24T13:41:00;34.40;99.90
25825;DHT22;13658;44.534;18.694;2023-07-24T13:43:27;34.20;99.90
25825;DHT22;13658;44.534;18.694;2023-07-24T13:45:53;34.20;99.90
25825;DHT22;13658;44.534;18.694;2023-07-24T13:48:19;34.20;99.90
25825;DHT22;13658;44.534;18.694;2023-07-24T13:50:45;34.20;99.90
25825;DHT22;13658;44.534;18.694;2023-07-24T13:53:11;34.30;99.90
25825;DHT22;13658;44.534;18.694;2023-07-24T13:55:38;34.20;99.90
25825;DHT22;13658;44.534;18.694;2023-07-24T13:58:04;34.20;99.90
25825;DHT22;13658;44.534;18.694;2023-07-24T14:00:30;34.20;99.90
25825;DHT22;13658;44.534;18.694;2023-07-24T14:02:55;34.20;99.90
25825;DHT22;13658;44.534;18.694;2023-07-24T14:05:22;34.20;99.90
25825;DHT22;13658;44.534;18.694;2023-07-24T14:07:47;34.10;99.90
25825;DHT22;13658;44.534;18.694;2023-07-24T14:10:13;34.00;99.90
25825;DHT22;13658;44.534;18.694;2023-07-24T14:12:39;34.00;99.90
25825;DHT22;13658;44.534;18.694;2023-07-24T14:15:06;34.00;99.90
25825;DHT22;13658;44.534;18.694;2023-07-24T14:17:32;33.90;99.90
25825;DHT22;13658;44.534;18.694;2023-07-24T14:19:58;33.90;99.90
25825;DHT22;13658;44.534;18.694;2023-07-24T14:22:24;33.90;99.90
25825;DHT22;13658;44.534;18.694;2023-07-24T14:24:49;33.90;99.90
25825;DHT22;13658;44.534;18.694;2023-07-24T14:27:15;33.80;99.90
25825;DHT22;13658;44.534;18.694;2023-07-24T14:29:41;33.80;99.90
25825;DHT22;13658;44.534;18.694;2023-07-24T14:32:07;33.80;99.90
25825;DHT22;13658;44.534;18.694;2023-07-24T14:34:33;33.80;99.90
25825;DHT22;13658;44.534;18.694;2023-07-24T14:36:59;33.70;99.90
25825;DHT22;13658;44.534;18.694;2023-07-24T14:39:25;33.60;99.90
25825;DHT22;13658;44.534;18.694;2023-07-24T14:41:51;33.60;99.90
25825;DHT22;13658;44.534;18.694;2023-07-24T14:44:17;33.60;99.90
25825;DHT22;13658;44.534;18.694;2023-07-24T14:46:43;33.60;99.90
25825;DHT22;13658;44.534;18.694;2023-07-24T14:49:09;33.60;99.90
25825;DHT22;13658;44.534;18.694;2023-07-24T14:51:35;33.60;99.90
25825;DHT22;13658;44.534;18.694;2023-07-24T14:54:01;33.60;99.90
25825;DHT22;13658;44.534;18.694;2023-07-24T14:56:27;33.60;99.90
25825;DHT22;13658;44.534;18.694;2023-07-24T14:58:53;33.60;99.90
25825;DHT22;13658;44.534;18.694;2023-07-24T15:01:18;33.60;99.90
25825;DHT22;13658;44.534;18.694;2023-07-24T15:03:44;33.60;99.90
25825;DHT22;13658;44.534;18.694;2023-07-24T15:06:10;33.70;99.90
25825;DHT22;13658;44.534;18.694;2023-07-24T15:08:36;33.60;99.90
25825;DHT22;13658;44.534;18.694;2023-07-24T15:11:03;33.70;99.90
25825;DHT22;13658;44.534;18.694;2023-07-24T15:13:29;33.60;99.90
25825;DHT22;13658;44.534;18.694;2023-07-24T15:15:55;33.60;99.90
25825;DHT22;13658;44.534;18.694;2023-07-24T15:18:21;33.60;99.90